e-Mail: Password: Lost your password? Click here. - Register a new user

c h a v e z j u a r e z . c o m

Weather - Tiempo - Wetter - Temps

METAR DATA MMMX (Mexico City)

Mexico City / Licenci, Mexico (MMMX) 19-26N 099-06W
Jan 25, 2021 - 11:07 AM EST / 2021.01.25 1607 UTC
Wind: Calm:0
Visibility: 9 mile(s):0
Sky conditions: clear
Temperature: 62 F (17 C)
Dew Point: 39 F (4 C)
Relative Humidity: 41%
Pressure (altimeter): 30.28 in. Hg (1025 hPa)
ob: MMMX 251607Z 00000KT 9SM SKC 17/04 A3028 NOSIG RMK HZY
cycle: 16

Mexico City

St. Prex




Current weather alarms for Switzerland


www.wetteralarm.ch